createdAt,value
2018-08-03T00:00:46.267Z,22.01
2018-08-03T00:03:15.029Z,22.02
2018-08-03T00:05:43.840Z,22.04
2018-08-03T00:08:12.641Z,21.71
2018-08-03T00:10:41.414Z,22.03
2018-08-03T00:13:10.277Z,22.08
2018-08-03T00:15:39.072Z,21.92
2018-08-03T00:18:07.889Z,21.69
2018-08-03T00:20:36.685Z,21.84
2018-08-03T00:23:05.559Z,22.14
2018-08-03T00:25:34.383Z,21.76
2018-08-03T00:28:03.150Z,21.77
2018-08-03T00:30:31.933Z,21.79
2018-08-03T00:33:00.778Z,21.63
2018-08-03T00:35:29.541Z,21.43
2018-08-03T00:37:58.470Z,21.65
2018-08-03T00:40:27.256Z,21.66
2018-08-03T00:42:56.042Z,21.61
2018-08-03T00:45:24.809Z,21.43
2018-08-03T00:47:53.570Z,21.48
2018-08-03T00:50:22.338Z,21.35
2018-08-03T00:52:51.094Z,21.48
2018-08-03T00:55:19.873Z,21.56
2018-08-03T00:57:48.664Z,21.58
2018-08-03T01:00:17.429Z,21.61
2018-08-03T01:02:46.213Z,21.37
2018-08-03T01:05:15.003Z,21.38
2018-08-03T01:07:43.769Z,21.62
2018-08-03T01:10:12.537Z,21.61
2018-08-03T01:12:41.377Z,21.63
2018-08-03T01:15:10.189Z,21.33
2018-08-03T01:17:38.948Z,21.35
2018-08-03T01:20:07.705Z,21.39
2018-08-03T01:22:36.474Z,21.29
2018-08-03T01:25:05.664Z,21.29
2018-08-03T01:27:34.553Z,21.25
2018-08-03T01:30:03.473Z,21.13
2018-08-03T01:32:32.238Z,21.14
2018-08-03T01:35:01.044Z,21.17
2018-08-03T01:37:29.812Z,21.40
2018-08-03T01:39:58.594Z,21.14
2018-08-03T01:42:27.356Z,21.09
2018-08-03T01:44:56.139Z,21.15
2018-08-03T01:47:24.881Z,20.90
2018-08-03T01:49:53.646Z,20.82
2018-08-03T01:52:22.425Z,20.95
2018-08-03T01:54:51.206Z,20.60
2018-08-03T01:57:19.978Z,20.98
2018-08-03T01:59:48.841Z,20.77
2018-08-03T02:02:17.593Z,20.70
2018-08-03T02:04:46.356Z,20.76
2018-08-03T02:07:15.129Z,20.85
2018-08-03T02:09:43.880Z,20.83
2018-08-03T02:12:12.653Z,20.72
2018-08-03T02:14:41.415Z,20.85
2018-08-03T02:17:10.195Z,20.59
2018-08-03T02:19:38.962Z,20.63
2018-08-03T02:22:07.745Z,20.27
2018-08-03T02:24:36.501Z,20.75
2018-08-03T02:27:05.261Z,20.53
2018-08-03T02:29:34.023Z,20.10
2018-08-03T02:32:02.796Z,19.98
2018-08-03T02:34:31.557Z,19.93
2018-08-03T02:37:00.319Z,19.96
2018-08-03T02:39:29.100Z,20.04
2018-08-03T02:41:57.886Z,20.17
2018-08-03T02:44:26.644Z,19.94
2018-08-03T02:46:55.398Z,20.07
2018-08-03T02:49:24.157Z,20.04
2018-08-03T02:51:53.025Z,19.88
2018-08-03T02:54:21.809Z,19.73
2018-08-03T02:56:50.600Z,19.83
2018-08-03T02:59:19.368Z,19.72
2018-08-03T03:01:48.137Z,19.79
2018-08-03T03:04:16.869Z,19.73
2018-08-03T03:06:45.642Z,19.57
2018-08-03T03:09:14.408Z,19.60
2018-08-03T03:11:43.174Z,19.49
2018-08-03T03:14:11.993Z,19.59
2018-08-03T03:16:40.758Z,19.70
2018-08-03T03:19:09.533Z,19.70
2018-08-03T03:21:38.296Z,19.58
2018-08-03T03:24:07.073Z,19.73
2018-08-03T03:26:35.890Z,19.82
2018-08-03T03:29:04.673Z,19.63
2018-08-03T03:31:33.444Z,19.56
2018-08-03T03:34:02.368Z,19.36
2018-08-03T03:36:31.271Z,19.51
2018-08-03T03:39:00.081Z,19.54
2018-08-03T03:41:28.833Z,19.38
2018-08-03T03:43:57.633Z,19.34
2018-08-03T03:46:26.396Z,19.31
2018-08-03T03:48:55.159Z,19.35
2018-08-03T03:51:23.951Z,19.57
2018-08-03T03:53:52.747Z,19.72
2018-08-03T03:56:21.510Z,19.82
2018-08-03T03:58:50.543Z,19.77
2018-08-03T04:01:19.303Z,19.69
2018-08-03T04:03:48.081Z,19.66
2018-08-03T04:06:16.853Z,19.79
2018-08-03T04:08:45.688Z,19.67
2018-08-03T04:11:14.499Z,19.76
2018-08-03T04:13:43.285Z,19.57
2018-08-03T04:16:12.050Z,19.60
2018-08-03T04:18:40.809Z,19.48
2018-08-03T04:21:09.610Z,19.66
2018-08-03T04:23:38.378Z,19.91
2018-08-03T04:26:07.173Z,20.35
2018-08-03T04:28:35.998Z,20.58
2018-08-03T04:31:04.781Z,20.74
2018-08-03T04:33:33.550Z,20.96
2018-08-03T04:36:02.345Z,20.95
2018-08-03T04:38:31.115Z,21.02
2018-08-03T04:40:59.936Z,21.14
2018-08-03T04:43:28.729Z,21.18
2018-08-03T04:45:57.478Z,21.18
2018-08-03T04:48:26.230Z,20.99
2018-08-03T04:50:55.008Z,21.09
2018-08-03T04:53:23.766Z,20.91
2018-08-03T04:55:52.524Z,20.89
2018-08-03T04:58:21.288Z,20.75
2018-08-03T05:00:50.133Z,20.92
2018-08-03T05:03:18.909Z,20.91
2018-08-03T05:05:47.667Z,21.02
2018-08-03T05:08:16.435Z,20.96
2018-08-03T05:10:45.241Z,20.89
2018-08-03T05:13:14.089Z,20.80
2018-08-03T05:15:42.865Z,20.82
2018-08-03T05:18:11.622Z,20.69
2018-08-03T05:20:40.407Z,20.64
2018-08-03T05:23:09.174Z,20.57
2018-08-03T05:25:37.944Z,20.55
2018-08-03T05:28:06.727Z,20.50
2018-08-03T05:30:35.491Z,20.56
2018-08-03T05:33:04.306Z,20.50
2018-08-03T05:35:33.181Z,20.45
2018-08-03T05:38:01.897Z,20.47
2018-08-03T05:40:30.654Z,20.42
2018-08-03T05:42:59.461Z,20.62
2018-08-03T05:45:28.298Z,20.64
2018-08-03T05:47:57.031Z,20.58
2018-08-03T05:50:25.805Z,20.57
2018-08-03T05:52:54.576Z,20.77
2018-08-03T05:55:23.370Z,20.50
2018-08-03T05:57:52.143Z,20.55
2018-08-03T06:00:20.892Z,20.59
2018-08-03T06:02:49.801Z,20.68
2018-08-03T06:05:18.585Z,20.53
2018-08-03T06:07:47.333Z,20.55
2018-08-03T06:10:16.085Z,20.59
2018-08-03T06:12:44.871Z,20.88
2018-08-03T06:15:13.613Z,20.68
2018-08-03T06:17:42.371Z,20.81
2018-08-03T06:20:12.861Z,20.84
2018-08-03T06:22:42.165Z,20.67
2018-08-03T06:25:11.316Z,20.62
2018-08-03T06:27:40.114Z,20.67
2018-08-03T06:30:10.802Z,20.59
2018-08-03T06:32:39.754Z,20.61
2018-08-03T06:35:08.695Z,20.63
2018-08-03T06:37:37.779Z,20.74
2018-08-03T06:40:06.569Z,20.74
2018-08-03T06:42:35.389Z,20.70
2018-08-03T06:45:04.262Z,20.57
2018-08-03T06:47:33.036Z,20.77
2018-08-03T06:50:01.832Z,21.07
2018-08-03T06:52:30.612Z,21.13
2018-08-03T06:54:59.453Z,20.90
2018-08-03T06:57:28.249Z,21.04
2018-08-03T06:59:57.045Z,21.06
2018-08-03T07:02:25.826Z,21.00
2018-08-03T07:04:54.605Z,20.99
2018-08-03T07:07:23.367Z,21.01
2018-08-03T07:09:52.136Z,21.01
2018-08-03T07:12:20.913Z,21.16
2018-08-03T07:14:49.730Z,21.09
2018-08-03T07:17:19.157Z,21.25
2018-08-03T07:19:47.949Z,21.30
2018-08-03T07:22:16.710Z,21.24
2018-08-03T07:24:45.473Z,21.17
2018-08-03T07:27:14.269Z,21.20
2018-08-03T07:29:43.028Z,21.34
2018-08-03T07:32:12.000Z,21.42
2018-08-03T07:34:40.646Z,21.34
2018-08-03T07:37:09.414Z,21.50
2018-08-03T07:39:38.153Z,21.48
2018-08-03T07:42:06.930Z,21.43
2018-08-03T07:44:35.876Z,21.25
2018-08-03T07:47:04.672Z,21.30
2018-08-03T07:49:33.465Z,21.32
2018-08-03T07:52:02.265Z,21.40
2018-08-03T07:54:37.540Z,21.37
2018-08-03T07:57:06.950Z,21.39
2018-08-03T07:59:35.767Z,21.39
2018-08-03T08:02:04.590Z,21.43
2018-08-03T08:04:33.347Z,21.39
2018-08-03T08:07:02.136Z,21.48
2018-08-03T08:09:30.968Z,21.50
2018-08-03T08:11:59.738Z,21.59
2018-08-03T08:14:28.534Z,21.62
2018-08-03T08:16:57.362Z,21.65
2018-08-03T08:19:26.960Z,21.46
2018-08-03T08:21:55.689Z,21.69
2018-08-03T08:24:24.453Z,21.65
2018-08-03T08:26:53.249Z,21.78
2018-08-03T08:29:21.997Z,21.47
2018-08-03T08:31:50.827Z,21.77
2018-08-03T08:34:19.586Z,21.71
2018-08-03T08:36:48.342Z,21.83
2018-08-03T08:39:17.135Z,21.88
2018-08-03T08:41:45.901Z,21.92
2018-08-03T08:44:14.768Z,22.03
2018-08-03T08:46:43.925Z,21.76
2018-08-03T08:49:12.732Z,21.99
2018-08-03T08:51:41.557Z,21.99
2018-08-03T08:54:10.339Z,22.03
2018-08-03T08:56:39.093Z,22.07
2018-08-03T08:59:07.902Z,22.09
2018-08-03T09:01:36.700Z,22.09
2018-08-03T09:04:05.517Z,22.12
2018-08-03T09:06:34.341Z,22.15
2018-08-03T09:09:03.224Z,22.20
2018-08-03T09:11:31.985Z,22.17
2018-08-03T09:14:00.755Z,22.29
2018-08-03T09:16:29.553Z,22.28
2018-08-03T09:18:58.429Z,22.26
2018-08-03T09:21:27.188Z,22.30
2018-08-03T09:23:55.941Z,22.38
2018-08-03T09:26:24.742Z,22.36
2018-08-03T09:28:53.522Z,22.39
2018-08-03T09:31:22.379Z,22.43
2018-08-03T09:33:51.137Z,22.56
2018-08-03T09:36:19.962Z,22.53
2018-08-03T09:38:48.784Z,22.48
2018-08-03T09:41:17.547Z,22.47
2018-08-03T09:43:46.361Z,22.44
2018-08-03T09:46:15.140Z,22.50
2018-08-03T09:48:43.950Z,22.48
2018-08-03T09:51:12.767Z,22.53
2018-08-03T09:53:41.524Z,22.58
2018-08-03T09:56:10.312Z,22.54
2018-08-03T09:58:39.094Z,22.57
2018-08-03T10:01:11.341Z,22.61
2018-08-03T10:03:41.065Z,22.64
2018-08-03T10:06:10.158Z,22.65
2018-08-03T10:08:38.937Z,22.78
2018-08-03T10:11:08.342Z,22.76
2018-08-03T10:13:37.132Z,22.70
2018-08-03T10:16:05.903Z,22.68
2018-08-03T10:18:34.698Z,22.83
2018-08-03T10:21:03.474Z,22.82
2018-08-03T10:23:32.233Z,22.84
2018-08-03T10:26:01.047Z,23.00
2018-08-03T10:28:29.830Z,23.05
2018-08-03T10:30:58.640Z,23.22
2018-08-03T10:33:27.401Z,23.10
2018-08-03T10:35:56.196Z,23.12
2018-08-03T10:38:25.010Z,23.09
2018-08-03T10:40:53.791Z,23.11
2018-08-03T10:43:22.585Z,23.08
2018-08-03T10:45:51.345Z,23.15
2018-08-03T10:48:20.124Z,23.24
2018-08-03T10:50:49.092Z,23.28
2018-08-03T10:53:17.881Z,23.31
2018-08-03T10:55:46.707Z,23.24
2018-08-03T10:58:15.506Z,23.13
2018-08-03T11:00:44.310Z,23.34
2018-08-03T11:03:13.119Z,23.26
2018-08-03T11:05:41.900Z,23.17
2018-08-03T11:08:10.687Z,23.16
2018-08-03T11:10:39.517Z,23.22
2018-08-03T11:13:08.308Z,23.25
2018-08-03T11:15:37.078Z,23.39
2018-08-03T11:18:06.025Z,23.32
2018-08-03T11:20:34.791Z,23.38
2018-08-03T11:23:03.585Z,23.42
2018-08-03T11:25:32.387Z,23.32
2018-08-03T11:28:01.169Z,23.40
2018-08-03T11:30:29.954Z,23.29
2018-08-03T11:32:58.729Z,23.41
2018-08-03T11:35:27.504Z,23.48
2018-08-03T11:37:56.299Z,23.44
2018-08-03T11:40:25.062Z,23.57
2018-08-03T11:42:53.813Z,23.59
2018-08-03T11:45:22.589Z,23.64
2018-08-03T11:47:51.358Z,23.65
2018-08-03T11:50:20.121Z,23.53
2018-08-03T11:52:48.925Z,23.68
2018-08-03T11:55:17.750Z,23.81
2018-08-03T11:57:46.512Z,23.79
2018-08-03T12:00:15.320Z,23.79
2018-08-03T12:02:44.082Z,23.78
2018-08-03T12:05:12.833Z,23.66
2018-08-03T12:07:41.599Z,23.73
2018-08-03T12:10:10.366Z,23.75
2018-08-03T12:12:39.131Z,23.72
2018-08-03T12:15:07.926Z,23.94
2018-08-03T12:17:36.685Z,23.86
2018-08-03T12:20:05.629Z,23.81
2018-08-03T12:22:34.398Z,23.81
2018-08-03T12:25:03.159Z,23.80
2018-08-03T12:27:31.938Z,23.82
2018-08-03T12:30:00.756Z,23.93
2018-08-03T12:32:29.527Z,24.09
2018-08-03T12:34:58.324Z,23.90
2018-08-03T12:37:27.123Z,23.92
2018-08-03T12:39:55.897Z,23.94
2018-08-03T12:42:24.673Z,23.85
2018-08-03T12:44:53.469Z,24.05
2018-08-03T12:47:22.201Z,24.22
2018-08-03T12:49:50.970Z,24.31
2018-08-03T12:52:19.765Z,24.21
2018-08-03T12:54:48.529Z,24.07
2018-08-03T12:57:17.289Z,24.32
2018-08-03T12:59:46.194Z,24.12
2018-08-03T13:02:14.968Z,24.15
2018-08-03T13:04:43.768Z,24.20
2018-08-03T13:07:12.597Z,24.05
2018-08-03T13:09:41.425Z,24.15
2018-08-03T13:12:10.298Z,24.19
2018-08-03T13:14:39.074Z,24.26
2018-08-03T13:17:07.880Z,24.29
2018-08-03T13:19:36.658Z,24.46
2018-08-03T13:22:05.443Z,24.35
2018-08-03T13:24:34.214Z,24.37
2018-08-03T13:27:03.037Z,24.33
2018-08-03T13:29:32.080Z,24.27
2018-08-03T13:32:00.812Z,24.15
2018-08-03T13:34:29.553Z,24.17
2018-08-03T13:36:58.328Z,24.32
2018-08-03T13:39:27.104Z,24.60
2018-08-03T13:41:56.105Z,24.41
2018-08-03T13:44:24.887Z,24.44
2018-08-03T13:46:53.633Z,24.30
2018-08-03T13:49:22.469Z,24.32
2018-08-03T13:51:51.254Z,24.41
2018-08-03T13:54:20.038Z,24.56
2018-08-03T13:56:48.836Z,24.49
2018-08-03T13:59:17.600Z,24.52
2018-08-03T14:01:57.333Z,24.50
2018-08-03T14:04:26.126Z,24.42
2018-08-03T14:06:54.893Z,24.41
2018-08-03T14:09:23.682Z,24.45
2018-08-03T14:11:52.474Z,24.40
2018-08-03T14:14:21.257Z,24.44
2018-08-03T14:16:50.054Z,24.39
2018-08-03T14:19:18.973Z,24.47
2018-08-03T14:21:47.739Z,24.53
2018-08-03T14:24:16.521Z,24.48
2018-08-03T14:26:45.298Z,24.54
2018-08-03T14:29:14.050Z,24.62
2018-08-03T14:31:42.871Z,24.61
2018-08-03T14:34:11.644Z,24.60
2018-08-03T14:36:40.468Z,24.57
2018-08-03T14:39:10.509Z,24.59
2018-08-03T14:41:39.469Z,24.59
2018-08-03T14:44:09.181Z,24.60
2018-08-03T14:46:38.907Z,24.67
2018-08-03T14:49:07.762Z,24.73
2018-08-03T14:51:37.798Z,24.73
2018-08-03T14:54:07.500Z,24.84
2018-08-03T14:56:36.377Z,24.87
2018-08-03T14:59:05.247Z,24.91
2018-08-03T15:01:34.009Z,24.80
2018-08-03T15:04:02.842Z,24.82
2018-08-03T15:06:31.669Z,24.77
2018-08-03T15:09:00.488Z,24.88
2018-08-03T15:11:29.362Z,24.90
2018-08-03T15:13:58.175Z,24.86
2018-08-03T15:16:27.241Z,24.83
2018-08-03T15:18:57.188Z,24.97
2018-08-03T15:21:26.028Z,25.03
2018-08-03T15:23:54.813Z,24.95
2018-08-03T15:26:23.625Z,24.95
2018-08-03T15:28:52.384Z,24.89
2018-08-03T15:31:21.180Z,24.86
2018-08-03T15:33:49.981Z,24.90
2018-08-03T15:36:18.736Z,24.90
2018-08-03T15:38:47.519Z,24.91
2018-08-03T15:41:16.294Z,24.92
2018-08-03T15:43:45.077Z,24.89
2018-08-03T15:46:13.856Z,24.90
2018-08-03T15:48:42.801Z,24.93
2018-08-03T15:51:11.561Z,24.92
2018-08-03T15:53:40.341Z,24.88
2018-08-03T15:56:09.117Z,24.84
2018-08-03T15:58:37.904Z,24.88
2018-08-03T16:01:07.854Z,24.93
2018-08-03T16:03:36.650Z,24.92
2018-08-03T16:06:05.494Z,24.95
2018-08-03T16:08:34.300Z,25.07
2018-08-03T16:11:03.124Z,25.07
2018-08-03T16:13:31.910Z,25.09
2018-08-03T16:16:00.664Z,25.08
2018-08-03T16:18:29.428Z,25.13
2018-08-03T16:20:58.246Z,25.24
2018-08-03T16:23:27.025Z,25.26
2018-08-03T16:25:55.830Z,25.26
2018-08-03T16:28:24.629Z,25.22
2018-08-03T16:30:53.423Z,25.22
2018-08-03T16:33:22.165Z,25.23
2018-08-03T16:35:50.955Z,25.25
2018-08-03T16:38:19.721Z,25.31
2018-08-03T16:40:48.516Z,25.23
2018-08-03T16:43:17.319Z,25.14
2018-08-03T16:45:46.125Z,25.11
2018-08-03T16:48:14.942Z,25.07
2018-08-03T16:50:43.792Z,25.06
2018-08-03T16:53:12.560Z,25.03
2018-08-03T16:55:41.435Z,25.01
2018-08-03T16:58:10.223Z,24.90
2018-08-03T17:00:39.021Z,24.89
2018-08-03T17:03:07.832Z,24.87
2018-08-03T17:05:36.594Z,24.86
2018-08-03T17:08:05.468Z,24.85
2018-08-03T17:10:34.305Z,24.85
2018-08-03T17:13:03.056Z,24.88
2018-08-03T17:15:31.881Z,24.87
2018-08-03T17:18:00.642Z,24.82
2018-08-03T17:20:29.409Z,24.81
2018-08-03T17:22:58.201Z,24.74
2018-08-03T17:25:26.988Z,24.76
2018-08-03T17:27:55.744Z,24.80
2018-08-03T17:30:24.530Z,24.79
2018-08-03T17:32:53.319Z,24.83
2018-08-03T17:35:22.073Z,24.81
2018-08-03T17:37:50.932Z,24.78
2018-08-03T17:40:19.941Z,24.70
2018-08-03T17:42:48.793Z,24.69
2018-08-03T17:45:17.570Z,24.64
2018-08-03T17:47:46.382Z,24.58
2018-08-03T17:50:15.184Z,24.55
2018-08-03T17:52:43.970Z,24.55
2018-08-03T17:55:12.747Z,24.56
2018-08-03T17:57:41.517Z,24.61
2018-08-03T18:00:10.323Z,24.58
2018-08-03T18:02:39.133Z,24.58
2018-08-03T18:05:07.980Z,24.59
2018-08-03T18:07:36.748Z,24.63
2018-08-03T18:10:06.482Z,24.65
2018-08-03T18:12:35.251Z,24.69
2018-08-03T18:15:04.169Z,24.66
2018-08-03T18:17:32.988Z,24.62
2018-08-03T18:20:01.850Z,24.68
2018-08-03T18:22:30.610Z,24.64
2018-08-03T18:24:59.442Z,24.62
2018-08-03T18:27:28.221Z,24.62
2018-08-03T18:29:57.042Z,24.64
2018-08-03T18:32:25.880Z,24.60
2018-08-03T18:34:54.711Z,24.58
2018-08-03T18:37:23.529Z,24.56
2018-08-03T18:39:52.305Z,24.49
2018-08-03T18:42:21.093Z,24.38
2018-08-03T18:44:49.864Z,24.27
2018-08-03T18:47:18.652Z,24.24
2018-08-03T18:49:47.404Z,24.23
2018-08-03T18:52:16.236Z,24.23
2018-08-03T18:54:45.015Z,24.14
2018-08-03T18:57:13.846Z,24.08
2018-08-03T18:59:42.617Z,24.02
2018-08-03T19:02:11.389Z,23.91
2018-08-03T19:04:40.179Z,23.88
2018-08-03T19:07:08.985Z,23.87
2018-08-03T19:09:37.778Z,23.83
2018-08-03T19:12:06.557Z,23.85
2018-08-03T19:14:35.366Z,23.71
2018-08-03T19:17:04.225Z,23.75
2018-08-03T19:19:32.950Z,23.76
2018-08-03T19:22:01.891Z,23.59
2018-08-03T19:24:30.831Z,23.60
2018-08-03T19:26:59.622Z,23.47
2018-08-03T19:29:28.434Z,23.53
2018-08-03T19:31:57.302Z,23.48
2018-08-03T19:34:26.066Z,23.46
2018-08-03T19:36:54.874Z,23.40
2018-08-03T19:39:23.648Z,23.21
2018-08-03T19:41:52.437Z,23.08
2018-08-03T19:44:22.089Z,23.11
2018-08-03T19:46:50.893Z,22.96
2018-08-03T19:49:19.658Z,22.86
2018-08-03T19:51:48.465Z,22.88
2018-08-03T19:54:17.325Z,22.97
2018-08-03T19:56:46.409Z,22.72
2018-08-03T19:59:15.270Z,22.66
2018-08-03T20:01:44.282Z,22.80
2018-08-03T20:04:13.058Z,22.81
2018-08-03T20:06:41.879Z,22.89
2018-08-03T20:09:12.388Z,22.87
2018-08-03T20:11:41.264Z,22.84
2018-08-03T20:14:10.022Z,22.78
2018-08-03T20:16:38.829Z,22.74
2018-08-03T20:19:07.714Z,22.67
2018-08-03T20:21:36.524Z,22.58
2018-08-03T20:24:05.343Z,22.13
2018-08-03T20:26:34.122Z,22.44
2018-08-03T20:29:02.907Z,21.99
2018-08-03T20:31:31.697Z,22.35
2018-08-03T20:34:00.450Z,22.30
2018-08-03T20:36:29.265Z,22.27
2018-08-03T20:38:58.097Z,22.00
2018-08-03T20:41:26.874Z,22.12
2018-08-03T20:43:55.637Z,21.97
2018-08-03T20:46:24.493Z,22.00
2018-08-03T20:48:53.561Z,22.09
2018-08-03T20:51:22.322Z,21.97
2018-08-03T20:53:51.245Z,21.73
2018-08-03T20:56:20.620Z,21.68
2018-08-03T20:58:49.498Z,21.47
2018-08-03T21:01:18.318Z,21.61
2018-08-03T21:03:47.220Z,21.21
2018-08-03T21:06:15.970Z,21.70
2018-08-03T21:08:44.728Z,21.81
2018-08-03T21:11:13.548Z,21.76
2018-08-03T21:13:42.286Z,21.81
2018-08-03T21:16:11.075Z,21.76
2018-08-03T21:18:39.882Z,21.63
2018-08-03T21:21:08.658Z,21.60
2018-08-03T21:23:37.466Z,21.63
2018-08-03T21:26:06.273Z,21.54
2018-08-03T21:28:35.060Z,21.54
2018-08-03T21:31:03.873Z,21.51
2018-08-03T21:33:32.690Z,21.52
2018-08-03T21:36:01.460Z,21.46
2018-08-03T21:38:30.208Z,21.44
2018-08-03T21:40:58.982Z,21.26
2018-08-03T21:43:27.738Z,21.28
2018-08-03T21:45:56.573Z,21.25
2018-08-03T21:48:25.329Z,21.20
2018-08-03T21:50:54.234Z,21.06
2018-08-03T21:53:22.998Z,20.78
2018-08-03T21:55:51.754Z,21.01
2018-08-03T21:58:20.505Z,20.81
2018-08-03T22:00:49.302Z,20.90
2018-08-03T22:03:18.131Z,20.81
2018-08-03T22:05:46.887Z,20.68
2018-08-03T22:08:15.669Z,20.72
2018-08-03T22:10:44.726Z,20.90
2018-08-03T22:13:13.561Z,20.97
2018-08-03T22:15:42.321Z,20.67
2018-08-03T22:18:11.073Z,20.69
2018-08-03T22:20:39.844Z,20.32
2018-08-03T22:23:08.649Z,20.28
2018-08-03T22:25:37.429Z,20.13
2018-08-03T22:28:06.297Z,20.35
2018-08-03T22:30:35.073Z,20.03
2018-08-03T22:33:03.858Z,19.98
2018-08-03T22:35:32.623Z,19.59
2018-08-03T22:38:01.417Z,20.18
2018-08-03T22:40:30.172Z,19.59
2018-08-03T22:42:58.946Z,20.03
2018-08-03T22:45:27.773Z,19.95
2018-08-03T22:47:56.529Z,19.83
2018-08-03T22:50:25.386Z,19.54
2018-08-03T22:52:54.144Z,19.97
2018-08-03T22:55:22.887Z,19.49
2018-08-03T22:57:51.665Z,19.22
2018-08-03T23:00:20.504Z,19.37
2018-08-03T23:02:49.279Z,19.10
2018-08-03T23:05:18.031Z,19.47
2018-08-03T23:07:46.809Z,19.32
2018-08-03T23:10:15.561Z,19.69
2018-08-03T23:12:44.313Z,19.63
2018-08-03T23:15:13.131Z,19.77
2018-08-03T23:17:41.925Z,19.82
2018-08-03T23:20:10.686Z,18.99
2018-08-03T23:22:39.458Z,18.69
2018-08-03T23:25:08.342Z,18.92
2018-08-03T23:27:37.109Z,18.84
2018-08-03T23:30:07.281Z,18.69
2018-08-03T23:32:36.080Z,18.88
2018-08-03T23:35:04.845Z,18.78
2018-08-03T23:37:33.787Z,18.92
2018-08-03T23:40:02.593Z,19.07
2018-08-03T23:42:31.358Z,19.01
2018-08-03T23:45:00.154Z,18.72
2018-08-03T23:47:28.958Z,18.81
2018-08-03T23:49:57.702Z,18.74
2018-08-03T23:52:26.532Z,18.96
2018-08-03T23:54:55.387Z,19.40
2018-08-03T23:57:24.183Z,19.03
2018-08-03T23:59:53.060Z,19.00
